createdAt,value
2017-04-28T00:00:51.391Z,96.10
2017-04-28T00:03:20.361Z,95.80
2017-04-28T00:05:49.302Z,95.80
2017-04-28T00:08:18.307Z,95.70
2017-04-28T00:10:47.268Z,95.60
2017-04-28T00:13:16.469Z,95.60
2017-04-28T00:15:46.205Z,95.60
2017-04-28T00:18:15.950Z,95.70
2017-04-28T00:20:44.926Z,95.80
2017-04-28T00:23:17.494Z,95.70
2017-04-28T00:25:47.158Z,95.80
2017-04-28T00:28:16.126Z,95.70
2017-04-28T00:30:45.073Z,95.70
2017-04-28T00:33:15.079Z,95.60
2017-04-28T00:35:44.054Z,95.60
2017-04-28T00:38:13.040Z,95.60
2017-04-28T00:40:42.285Z,95.60
2017-04-28T00:43:11.335Z,95.70
2017-04-28T00:45:40.288Z,95.80
2017-04-28T00:48:09.621Z,95.80
2017-04-28T00:50:38.628Z,95.80
2017-04-28T00:53:07.620Z,95.60
2017-04-28T00:55:36.629Z,95.60
2017-04-28T00:58:05.614Z,95.60
2017-04-28T01:00:35.689Z,95.70
2017-04-28T01:03:04.656Z,95.60
2017-04-28T01:05:33.605Z,95.70
2017-04-28T01:08:02.574Z,95.80
2017-04-28T01:10:31.519Z,95.90
2017-04-28T01:13:00.853Z,95.90
2017-04-28T01:15:29.841Z,95.90
2017-04-28T01:17:58.836Z,95.80
2017-04-28T01:20:27.888Z,95.80
2017-04-28T01:22:56.837Z,95.80
2017-04-28T01:25:26.098Z,96.00
2017-04-28T01:27:55.057Z,96.10
2017-04-28T01:30:24.013Z,96.20
2017-04-28T01:32:53.404Z,96.00
2017-04-28T01:35:22.353Z,96.00
2017-04-28T01:37:51.327Z,96.20
2017-04-28T01:40:21.036Z,95.90
2017-04-28T01:42:50.020Z,96.00
2017-04-28T01:45:20.089Z,96.00
2017-04-28T01:47:49.056Z,96.10
2017-04-28T01:50:18.030Z,96.10
2017-04-28T01:52:47.025Z,96.40
2017-04-28T01:55:16.002Z,96.20
2017-04-28T01:57:46.006Z,96.10
2017-04-28T02:00:15.698Z,95.90
2017-04-28T02:02:44.651Z,95.90
2017-04-28T02:05:13.892Z,96.10
2017-04-28T02:07:42.981Z,96.30
2017-04-28T02:10:11.936Z,96.00
2017-04-28T02:12:40.901Z,95.90
2017-04-28T02:15:09.854Z,96.00
2017-04-28T02:17:39.240Z,96.20
2017-04-28T02:20:08.192Z,96.10
2017-04-28T02:22:37.146Z,96.20
2017-04-28T02:25:06.467Z,96.30
2017-04-28T02:27:35.422Z,96.60
2017-04-28T02:30:04.372Z,96.30
2017-04-28T02:32:33.339Z,96.20
2017-04-28T02:35:02.325Z,96.40
2017-04-28T02:37:31.592Z,96.30
2017-04-28T02:40:00.539Z,96.20
2017-04-28T02:42:29.483Z,96.20
2017-04-28T02:44:59.197Z,96.40
2017-04-28T02:47:28.913Z,96.00
2017-04-28T02:49:58.168Z,96.00
2017-04-28T02:52:27.117Z,96.00
2017-04-28T02:54:56.094Z,95.90
2017-04-28T02:57:25.083Z,95.80
2017-04-28T02:59:54.049Z,95.70
2017-04-28T03:02:23.340Z,95.60
2017-04-28T03:04:52.302Z,95.60
2017-04-28T03:07:21.252Z,95.60
2017-04-28T03:09:51.235Z,95.60
2017-04-28T03:12:20.246Z,95.40
2017-04-28T03:14:49.213Z,95.50
2017-04-28T03:17:18.198Z,95.50
2017-04-28T03:19:47.154Z,95.40
2017-04-28T03:22:16.407Z,95.40
2017-04-28T03:24:45.357Z,95.30
2017-04-28T03:27:14.356Z,95.40
2017-04-28T03:29:43.352Z,95.40
2017-04-28T03:32:12.305Z,95.40
2017-04-28T03:34:41.744Z,95.50
2017-04-28T03:37:10.699Z,95.50
2017-04-28T03:39:39.649Z,95.50
2017-04-28T03:42:08.924Z,95.60
2017-04-28T03:44:37.870Z,95.60
2017-04-28T03:47:06.875Z,95.70
2017-04-28T03:49:36.169Z,95.60
2017-04-28T03:52:05.142Z,95.50
2017-04-28T03:54:34.866Z,95.40
2017-04-28T03:57:03.981Z,95.40
2017-04-28T03:59:32.933Z,95.40
2017-04-28T04:02:02.919Z,95.50
2017-04-28T04:04:31.878Z,95.60
2017-04-28T04:07:00.849Z,95.70
2017-04-28T04:09:30.175Z,95.80
2017-04-28T04:11:59.195Z,95.90
2017-04-28T04:14:28.187Z,95.90
2017-04-28T04:16:57.146Z,95.80
2017-04-28T04:19:26.112Z,96.30
2017-04-28T04:21:55.575Z,96.10
2017-04-28T04:24:24.535Z,95.80
2017-04-28T04:26:53.498Z,96.10
2017-04-28T04:29:22.841Z,95.80
2017-04-28T04:31:51.833Z,95.50
2017-04-28T04:34:20.809Z,95.10
2017-04-28T04:36:49.795Z,95.40
2017-04-28T04:39:18.763Z,95.20
2017-04-28T04:41:48.146Z,94.30
2017-04-28T04:44:17.099Z,93.10
2017-04-28T04:46:46.023Z,92.10
2017-04-28T04:49:15.379Z,92.00
2017-04-28T04:51:44.333Z,92.20
2017-04-28T04:54:13.298Z,92.50
2017-04-28T04:56:42.282Z,92.80
2017-04-28T04:59:11.236Z,92.90
2017-04-28T05:01:40.568Z,93.00
2017-04-28T05:04:10.261Z,93.10
2017-04-28T05:06:39.219Z,93.20
2017-04-28T05:09:08.484Z,93.30
2017-04-28T05:11:37.469Z,93.50
2017-04-28T05:14:07.155Z,93.70
2017-04-28T05:16:36.110Z,93.80
2017-04-28T05:19:05.041Z,93.90
2017-04-28T05:21:35.037Z,93.90
2017-04-28T05:24:03.902Z,93.90
2017-04-28T05:26:32.905Z,94.00
2017-04-28T05:29:02.204Z,94.10
2017-04-28T05:31:31.170Z,94.20
2017-04-28T05:34:00.124Z,94.20
2017-04-28T05:36:29.837Z,94.30
2017-04-28T05:38:59.534Z,94.30
2017-04-28T05:41:29.536Z,94.30
2017-04-28T05:43:58.505Z,95.40
2017-04-28T05:46:27.463Z,95.40
2017-04-28T05:48:56.445Z,94.70
2017-04-28T05:51:25.411Z,94.10
2017-04-28T05:53:55.507Z,93.60
2017-04-28T05:56:24.469Z,92.90
2017-04-28T05:58:53.430Z,92.30
2017-04-28T06:01:22.790Z,92.10
2017-04-28T06:03:51.706Z,91.20
2017-04-28T06:06:20.714Z,91.00
2017-04-28T06:08:49.696Z,91.10
2017-04-28T06:11:18.670Z,91.00
2017-04-28T06:13:48.791Z,90.80
2017-04-28T06:16:18.511Z,90.50
2017-04-28T06:18:48.603Z,90.50
2017-04-28T06:21:17.563Z,90.90
2017-04-28T06:23:46.521Z,91.20
2017-04-28T06:26:15.760Z,91.50
2017-04-28T06:28:44.734Z,91.80
2017-04-28T06:31:13.738Z,92.10
2017-04-28T06:33:42.949Z,92.20
2017-04-28T06:36:12.701Z,92.30
2017-04-28T06:38:41.579Z,92.50
2017-04-28T06:41:10.949Z,92.60
2017-04-28T06:43:39.894Z,93.40
2017-04-28T06:46:08.848Z,93.70
2017-04-28T06:48:38.938Z,93.50
2017-04-28T06:51:07.895Z,93.40
2017-04-28T06:53:36.845Z,93.60
2017-04-28T06:56:06.640Z,93.70
2017-04-28T06:58:35.618Z,93.70
2017-04-28T07:01:04.913Z,93.50
2017-04-28T07:03:33.834Z,93.60
2017-04-28T07:06:03.538Z,93.60
2017-04-28T07:08:33.265Z,93.80
2017-04-28T07:11:02.211Z,93.60
2017-04-28T07:13:31.450Z,93.60
2017-04-28T07:16:01.145Z,93.60
2017-04-28T07:18:30.784Z,93.70
2017-04-28T07:21:00.233Z,93.80
2017-04-28T07:23:29.210Z,94.00
2017-04-28T07:25:58.217Z,94.00
2017-04-28T07:28:27.251Z,94.00
2017-04-28T07:30:56.215Z,94.00
2017-04-28T07:33:26.299Z,93.90
2017-04-28T07:35:55.271Z,93.90
2017-04-28T07:38:24.256Z,93.70
2017-04-28T07:40:53.258Z,93.70
2017-04-28T07:43:22.212Z,93.60
2017-04-28T07:45:51.563Z,93.60
2017-04-28T07:48:20.524Z,93.60
2017-04-28T07:50:49.478Z,93.70
2017-04-28T07:53:19.207Z,93.90
2017-04-28T07:55:48.204Z,94.20
2017-04-28T07:58:17.541Z,94.30
2017-04-28T08:00:46.499Z,94.40
2017-04-28T08:03:15.458Z,94.50
2017-04-28T08:05:45.172Z,94.50
2017-04-28T08:08:14.913Z,94.30
2017-04-28T08:10:44.180Z,94.40
2017-04-28T08:13:13.893Z,94.70
2017-04-28T08:15:43.625Z,94.40
2017-04-28T08:18:12.595Z,94.30
2017-04-28T08:20:41.566Z,94.30
2017-04-28T08:23:10.461Z,94.40
2017-04-28T08:25:39.494Z,94.80
2017-04-28T08:28:08.736Z,94.90
2017-04-28T08:30:38.172Z,94.90
2017-04-28T08:33:07.160Z,94.90
2017-04-28T08:35:36.144Z,94.90
2017-04-28T08:38:05.852Z,95.00
2017-04-28T08:40:35.893Z,95.00
2017-04-28T08:43:04.873Z,95.10
2017-04-28T08:45:33.886Z,95.10
2017-04-28T08:48:02.875Z,95.10
2017-04-28T08:50:31.827Z,95.10
2017-04-28T08:53:01.914Z,95.10
2017-04-28T08:55:31.634Z,95.10
2017-04-28T08:58:00.601Z,95.10
2017-04-28T09:00:29.591Z,95.10
2017-04-28T09:02:58.577Z,95.10
2017-04-28T09:05:27.898Z,95.00
2017-04-28T09:07:56.869Z,95.10
2017-04-28T09:10:25.831Z,95.10
2017-04-28T09:12:54.887Z,95.10
2017-04-28T09:15:24.630Z,95.00
2017-04-28T09:17:53.986Z,95.00
2017-04-28T09:20:22.951Z,95.00
2017-04-28T09:22:51.957Z,94.90
2017-04-28T09:25:20.923Z,94.80
2017-04-28T09:27:49.879Z,94.90
2017-04-28T09:30:19.229Z,95.10
2017-04-28T09:32:48.199Z,94.80
2017-04-28T09:35:17.228Z,94.70
2017-04-28T09:37:46.201Z,94.70
2017-04-28T09:40:15.197Z,94.70
2017-04-28T09:42:44.524Z,94.70
2017-04-28T09:45:13.563Z,94.70
2017-04-28T09:47:42.541Z,94.70
2017-04-28T09:50:11.893Z,95.40
2017-04-28T09:52:40.845Z,95.00
2017-04-28T09:55:09.798Z,96.30
2017-04-28T09:57:39.526Z,96.50
2017-04-28T10:00:08.488Z,96.10
2017-04-28T10:02:38.585Z,94.90
2017-04-28T10:05:07.567Z,93.90
2017-04-28T10:07:36.522Z,92.10
2017-04-28T10:10:05.846Z,91.70
2017-04-28T10:12:34.798Z,91.90
2017-04-28T10:15:03.840Z,92.20
2017-04-28T10:17:32.803Z,92.50
2017-04-28T10:20:01.768Z,92.60
2017-04-28T10:22:31.018Z,92.90
2017-04-28T10:25:00.047Z,93.30
2017-04-28T10:27:29.733Z,93.50
2017-04-28T10:29:58.712Z,93.60
2017-04-28T10:32:27.691Z,93.60
2017-04-28T10:34:57.016Z,93.60
2017-04-28T10:37:25.972Z,93.70
2017-04-28T10:39:54.943Z,93.90
2017-04-28T10:42:23.924Z,94.00
2017-04-28T10:44:52.876Z,94.10
2017-04-28T10:47:22.113Z,94.10
2017-04-28T10:49:51.080Z,94.20
2017-04-28T10:52:20.767Z,95.60
2017-04-28T10:54:49.759Z,96.50
2017-04-28T10:57:18.729Z,95.50
2017-04-28T10:59:47.968Z,94.80
2017-04-28T11:02:17.680Z,94.30
2017-04-28T11:04:47.421Z,93.50
2017-04-28T11:07:16.483Z,92.20
2017-04-28T11:09:46.171Z,91.30
2017-04-28T11:12:15.443Z,91.20
2017-04-28T11:14:44.430Z,91.40
2017-04-28T11:17:13.417Z,91.60
2017-04-28T11:19:42.386Z,92.00
2017-04-28T11:22:11.336Z,92.40
2017-04-28T11:24:40.606Z,92.70
2017-04-28T11:27:09.581Z,92.90
2017-04-28T11:29:38.624Z,93.00
2017-04-28T11:32:08.346Z,93.20
2017-04-28T11:34:37.340Z,93.30
2017-04-28T11:37:06.686Z,93.30
2017-04-28T11:39:35.637Z,93.30
2017-04-28T11:42:04.598Z,93.40
2017-04-28T11:44:34.600Z,93.60
2017-04-28T11:47:03.569Z,93.40
2017-04-28T11:49:32.540Z,93.50
2017-04-28T11:52:01.526Z,93.60
2017-04-28T11:54:30.488Z,93.70
2017-04-28T11:57:00.703Z,93.90
2017-04-28T11:59:30.455Z,94.00
2017-04-28T12:01:59.410Z,94.10
2017-04-28T12:04:28.409Z,94.20
2017-04-28T12:06:57.374Z,94.20
2017-04-28T12:09:26.632Z,94.20
2017-04-28T12:11:55.614Z,94.40
2017-04-28T12:14:24.561Z,94.50
2017-04-28T12:16:54.304Z,94.70
2017-04-28T12:19:23.253Z,94.80
2017-04-28T12:21:53.342Z,95.00
2017-04-28T12:24:22.301Z,95.70
2017-04-28T12:26:51.262Z,96.40
2017-04-28T12:29:20.973Z,95.50
2017-04-28T12:31:50.666Z,94.50
2017-04-28T12:34:19.931Z,94.40
2017-04-28T12:36:48.893Z,94.50
2017-04-28T12:39:17.854Z,94.50
2017-04-28T12:41:47.578Z,94.50
2017-04-28T12:44:16.546Z,94.60
2017-04-28T12:46:46.629Z,94.60
2017-04-28T12:49:15.594Z,94.70
2017-04-28T12:51:44.452Z,94.60
2017-04-28T12:54:13.818Z,94.80
2017-04-28T12:56:42.786Z,94.80
2017-04-28T12:59:11.737Z,94.80
2017-04-28T13:01:41.819Z,94.80
2017-04-28T13:04:10.794Z,94.90
2017-04-28T13:06:39.750Z,94.90
2017-04-28T13:09:09.095Z,94.90
2017-04-28T13:11:38.062Z,94.80
2017-04-28T13:14:07.035Z,94.80
2017-04-28T13:16:36.025Z,94.80
2017-04-28T13:19:05.372Z,94.90
2017-04-28T13:21:34.661Z,94.90
2017-04-28T13:24:03.626Z,95.00
2017-04-28T13:26:32.611Z,95.00
2017-04-28T13:29:01.596Z,94.90
2017-04-28T13:31:30.560Z,94.90
2017-04-28T13:34:00.579Z,94.90
2017-04-28T13:36:30.287Z,94.90
2017-04-28T13:39:00.282Z,94.90
2017-04-28T13:41:29.237Z,94.80
2017-04-28T13:43:58.207Z,94.90
2017-04-28T13:46:27.549Z,94.90
2017-04-28T13:48:56.510Z,94.90
2017-04-28T13:51:25.940Z,95.00
2017-04-28T13:53:55.244Z,95.00
2017-04-28T13:56:24.200Z,95.00
2017-04-28T13:58:53.172Z,94.90
2017-04-28T14:01:22.143Z,95.00
2017-04-28T14:03:51.868Z,95.00
2017-04-28T14:06:21.217Z,94.90
2017-04-28T14:08:50.181Z,94.80
2017-04-28T14:11:19.134Z,94.70
2017-04-28T14:13:49.202Z,94.70
2017-04-28T14:16:18.169Z,94.90
2017-04-28T14:18:47.162Z,94.90
2017-04-28T14:21:16.160Z,94.80
2017-04-28T14:23:45.158Z,94.80
2017-04-28T14:26:14.478Z,94.80
2017-04-28T14:28:43.459Z,94.90
2017-04-28T14:31:12.426Z,94.90
2017-04-28T14:33:41.754Z,94.90
2017-04-28T14:36:10.755Z,95.00
2017-04-28T14:38:39.728Z,95.00
2017-04-28T14:41:08.823Z,95.10
2017-04-28T14:43:37.775Z,95.00
2017-04-28T14:46:07.094Z,95.00
2017-04-28T14:48:36.039Z,94.90
2017-04-28T14:51:05.757Z,95.00
2017-04-28T14:53:35.500Z,94.90
2017-04-28T14:56:04.451Z,94.90
2017-04-28T14:58:34.459Z,95.00
2017-04-28T15:01:04.182Z,95.10
2017-04-28T15:03:33.122Z,95.20
2017-04-28T15:06:02.356Z,95.20
2017-04-28T15:08:32.082Z,95.20
2017-04-28T15:11:01.059Z,95.30
2017-04-28T15:13:31.153Z,95.40
2017-04-28T15:16:00.134Z,95.40
2017-04-28T15:18:29.096Z,95.50
2017-04-28T15:20:58.122Z,95.50
2017-04-28T15:23:27.096Z,95.60
2017-04-28T15:25:56.397Z,95.80
2017-04-28T15:28:25.363Z,95.80
2017-04-28T15:30:54.349Z,95.90
2017-04-28T15:33:23.369Z,95.90
2017-04-28T15:35:52.366Z,95.90
2017-04-28T15:38:21.621Z,96.00
2017-04-28T15:40:50.620Z,96.10
2017-04-28T15:43:19.582Z,96.10
2017-04-28T15:45:49.335Z,96.10
2017-04-28T15:48:18.327Z,96.10
2017-04-28T15:50:47.643Z,96.10
2017-04-28T15:53:16.518Z,96.20
2017-04-28T15:55:45.541Z,96.10
2017-04-28T15:58:14.587Z,96.20
2017-04-28T16:00:43.535Z,96.20
2017-04-28T16:03:13.268Z,96.20
2017-04-28T16:05:42.254Z,96.30
2017-04-28T16:08:11.212Z,96.60
2017-04-28T16:10:40.209Z,96.30
2017-04-28T16:13:09.194Z,96.40
2017-04-28T16:15:38.483Z,96.40
2017-04-28T16:18:07.457Z,96.40
2017-04-28T16:20:36.437Z,96.50
2017-04-28T16:23:05.438Z,96.50
2017-04-28T16:25:34.383Z,96.60
2017-04-28T16:28:04.396Z,96.60
2017-04-28T16:30:34.131Z,96.60
2017-04-28T16:33:03.115Z,96.50
2017-04-28T16:35:32.446Z,96.60
2017-04-28T16:38:01.416Z,96.50
2017-04-28T16:40:30.383Z,96.40
2017-04-28T16:43:00.458Z,96.30
2017-04-28T16:45:29.417Z,96.40
2017-04-28T16:47:58.405Z,96.40
2017-04-28T16:50:27.427Z,96.50
2017-04-28T16:52:56.405Z,96.50
2017-04-28T16:55:25.681Z,96.60
2017-04-28T16:57:54.667Z,96.70
2017-04-28T17:00:23.649Z,96.70
2017-04-28T17:02:52.659Z,96.60
2017-04-28T17:05:21.673Z,96.60
2017-04-28T17:07:50.979Z,96.50
2017-04-28T17:10:19.957Z,96.50
2017-04-28T17:12:48.935Z,96.40
2017-04-28T17:15:18.298Z,96.40
2017-04-28T17:17:48.010Z,96.30
2017-04-28T17:20:16.989Z,96.30
2017-04-28T17:22:46.634Z,96.30
2017-04-28T17:25:15.649Z,96.30
2017-04-28T17:27:44.917Z,96.30
2017-04-28T17:30:13.906Z,96.30
2017-04-28T17:32:42.891Z,96.30
2017-04-28T17:35:12.243Z,96.40
2017-04-28T17:37:41.205Z,96.30
2017-04-28T17:40:10.172Z,96.30
2017-04-28T17:42:39.502Z,96.30
2017-04-28T17:45:08.477Z,96.40
2017-04-28T17:47:37.456Z,96.60
2017-04-28T17:50:06.466Z,96.60
2017-04-28T17:52:35.439Z,96.50
2017-04-28T17:55:04.763Z,96.60
2017-04-28T17:57:33.741Z,96.40
2017-04-28T18:00:02.764Z,96.20
2017-04-28T18:02:31.767Z,96.30
2017-04-28T18:05:00.742Z,96.50
2017-04-28T18:07:29.975Z,97.50
2017-04-28T18:09:59.687Z,98.50
2017-04-28T18:12:29.409Z,98.70
2017-04-28T18:14:58.394Z,98.00
2017-04-28T18:17:27.404Z,96.20
2017-04-28T18:19:56.757Z,95.40
2017-04-28T18:22:25.742Z,95.40
2017-04-28T18:24:54.737Z,95.40
2017-04-28T18:27:23.751Z,95.30
2017-04-28T18:29:52.749Z,95.40
2017-04-28T18:32:22.121Z,95.60
2017-04-28T18:34:51.117Z,95.80
2017-04-28T18:37:20.115Z,96.00
2017-04-28T18:39:49.122Z,96.00
2017-04-28T18:42:18.161Z,96.10
2017-04-28T18:44:47.186Z,96.20
2017-04-28T18:47:16.216Z,96.20
2017-04-28T18:49:45.664Z,96.20
2017-04-28T18:52:14.682Z,96.20
2017-04-28T18:54:43.602Z,96.40
2017-04-28T18:57:12.944Z,96.40
2017-04-28T18:59:41.973Z,96.40
2017-04-28T19:02:11.003Z,96.60
2017-04-28T19:04:40.268Z,96.30
2017-04-28T19:07:09.383Z,96.40
2017-04-28T19:09:38.418Z,96.40
2017-04-28T19:12:07.741Z,96.40
2017-04-28T19:14:36.727Z,96.40
2017-04-28T19:17:05.732Z,96.50
2017-04-28T19:19:34.780Z,96.50
2017-04-28T19:22:03.820Z,96.50
2017-04-28T19:24:33.308Z,96.50
2017-04-28T19:27:02.341Z,96.50
2017-04-28T19:29:31.346Z,96.50
2017-04-28T19:32:00.353Z,96.50
2017-04-28T19:34:29.348Z,96.50
2017-04-28T19:36:58.784Z,96.60
2017-04-28T19:39:27.803Z,96.70
2017-04-28T19:41:56.819Z,96.70
2017-04-28T19:44:26.231Z,96.70
2017-04-28T19:46:55.265Z,96.70
2017-04-28T19:49:24.284Z,96.80
2017-04-28T19:51:53.591Z,96.80
2017-04-28T19:54:23.036Z,96.80
2017-04-28T19:56:52.038Z,96.80
2017-04-28T19:59:21.094Z,96.90
2017-04-28T20:01:50.112Z,96.90
2017-04-28T20:04:19.503Z,97.00
2017-04-28T20:06:48.513Z,97.10
2017-04-28T20:09:17.497Z,97.10
2017-04-28T20:11:46.981Z,97.10
2017-04-28T20:14:16.041Z,97.20
2017-04-28T20:16:45.029Z,97.20
2017-04-28T20:19:14.310Z,97.20
2017-04-28T20:21:43.405Z,97.10
2017-04-28T20:24:12.457Z,97.10
2017-04-28T20:26:41.487Z,97.00
2017-04-28T20:29:10.490Z,97.10
2017-04-28T20:31:39.849Z,97.10
2017-04-28T20:34:08.844Z,97.20
2017-04-28T20:36:37.838Z,97.40
2017-04-28T20:39:07.100Z,97.10
2017-04-28T20:41:36.077Z,97.10
2017-04-28T20:44:05.069Z,97.00
2017-04-28T20:46:34.077Z,97.00
2017-04-28T20:49:03.044Z,97.10
2017-04-28T20:51:32.373Z,97.10
2017-04-28T20:54:01.369Z,97.20
2017-04-28T20:56:30.320Z,97.20
2017-04-28T20:58:59.307Z,97.30
2017-04-28T21:01:28.265Z,97.30
2017-04-28T21:03:57.526Z,97.20
2017-04-28T21:06:26.470Z,97.30
2017-04-28T21:08:55.468Z,97.30
2017-04-28T21:11:24.469Z,97.40
2017-04-28T21:13:53.434Z,97.40
2017-04-28T21:16:22.699Z,97.40
2017-04-28T21:18:51.655Z,97.50
2017-04-28T21:21:20.694Z,97.40
2017-04-28T21:23:49.590Z,97.40
2017-04-28T21:26:18.574Z,97.40
2017-04-28T21:28:47.832Z,97.40
2017-04-28T21:31:16.811Z,97.30
2017-04-28T21:33:45.802Z,97.30
2017-04-28T21:36:15.123Z,97.30
2017-04-28T21:38:44.080Z,97.30
2017-04-28T21:41:13.035Z,97.20
2017-04-28T21:43:42.379Z,97.20
2017-04-28T21:46:11.363Z,97.20
2017-04-28T21:48:40.322Z,97.20
2017-04-28T21:51:10.138Z,97.20
2017-04-28T21:53:39.860Z,97.20
2017-04-28T21:56:09.160Z,97.20
2017-04-28T21:58:38.118Z,97.40
2017-04-28T22:01:07.051Z,97.10
2017-04-28T22:03:36.318Z,97.10
2017-04-28T22:06:05.277Z,97.10
2017-04-28T22:08:34.226Z,97.00
2017-04-28T22:11:03.206Z,97.00
2017-04-28T22:13:32.194Z,97.00
2017-04-28T22:16:19.874Z,96.90
2017-04-28T22:18:48.828Z,96.90
2017-04-28T22:21:17.774Z,96.90
2017-04-28T22:23:47.020Z,96.80
2017-04-28T22:26:16.027Z,96.80
2017-04-28T22:28:44.988Z,96.80
2017-04-28T22:31:13.967Z,96.80
2017-04-28T22:33:43.670Z,96.90
2017-04-28T22:36:13.857Z,96.90
2017-04-28T22:38:42.866Z,96.80
2017-04-28T22:41:11.816Z,96.80
2017-04-28T22:43:40.793Z,96.70
2017-04-28T22:46:09.755Z,96.80
2017-04-28T22:48:40.037Z,96.70
2017-04-28T22:51:09.010Z,96.70
2017-04-28T22:53:37.989Z,96.70
2017-04-28T22:56:06.961Z,96.70
2017-04-28T22:58:35.937Z,96.80
2017-04-28T23:01:06.024Z,96.70
2017-04-28T23:03:34.987Z,96.70
2017-04-28T23:06:03.981Z,96.70
2017-04-28T23:08:32.956Z,96.70
2017-04-28T23:11:01.917Z,96.70
2017-04-28T23:13:31.377Z,96.80
2017-04-28T23:16:00.332Z,96.70
2017-04-28T23:18:29.298Z,96.70
2017-04-28T23:20:58.294Z,96.70
2017-04-28T23:23:28.969Z,96.70
2017-04-28T23:25:58.279Z,96.70
2017-04-28T23:28:27.258Z,96.80
2017-04-28T23:30:56.206Z,96.90
2017-04-28T23:33:26.010Z,96.90
2017-04-28T23:35:55.713Z,96.80
2017-04-28T23:38:25.809Z,96.80
2017-04-28T23:40:54.768Z,96.70
2017-04-28T23:43:23.723Z,96.70
2017-04-28T23:45:53.473Z,96.70
2017-04-28T23:48:22.440Z,96.70
2017-04-28T23:50:51.878Z,96.70
2017-04-28T23:53:20.840Z,96.60
2017-04-28T23:55:49.799Z,96.70
2017-04-28T23:58:18.478Z,96.70
